Home > Products > Valid Products > TAF

000
FTUS45 KPSR 200900 AAA
TAFPHX
TAF AMD
KPHX 200910Z 2009/2106 10005KT P6SM SCT080
      TEMPO 2011/2015 BKN080
     FM201800 VRB05KT P6SM SCT080 BKN250
     FM202200 28006KT P6SM SCT080 BKN250=



000
FTUS45 KPSR 200500
TAFIWA
TAF
KIWA 200521Z 2006/2106 VRB05KT P6SM FEW080
     FM200700 12005KT P6SM BKN100
     FM201800 VRB05KT P6SM SCT080 BKN250
     FM202100 26006KT P6SM SCT080 BKN250
      AMD LTD TO CLD VIS AND WIND TIL 201300=



000
FTUS45 KPSR 200500
TAFIWA
TAF
KIWA 200521Z 2006/2106 VRB05KT P6SM FEW080
     FM200700 12005KT P6SM BKN100
     FM201800 VRB05KT P6SM SCT080 BKN250
     FM202100 26006KT P6SM SCT080 BKN250
      AMD LTD TO CLD VIS AND WIND TIL 201300=



000
FTUS45 KPSR 200500
TAFBLH
TAF
KBLH 200521Z 2006/2106 26006KT P6SM SKC
     FM200900 VRB05KT P6SM SKC
     FM201500 17006KT P6SM BKN100
     FM202300 26005KT P6SM SCT100=



000
FTUS45 KPSR 200500
TAFIPL
TAF
KIPL 200521Z 2006/2106 28005KT P6SM SKC=



000
FTUS45 KPSR 200500
TAFPHX
TAF
KPHX 200521Z 2006/2106 VRB05KT P6SM FEW080
     FM200800 10005KT P6SM BKN100
     FM201800 VRB05KT P6SM SCT080 BKN250
     FM202200 28006KT P6SM SCT080 BKN250=



000
FTUS45 KPSR 200300 AAA
TAFPHX
TAF AMD
KPHX 200309Z 2003/2024 29008KT P6SM FEW070 SCT200
     FM200500 VRB05KT P6SM FEW080
     FM200800 10005KT P6SM BKN100
     FM201800 VRB05KT P6SM SCT080 BKN250=



000
FTUS45 KPSR 192300
TAFIWA
TAF
KIWA 192321Z 2000/2024 29006KT P6SM FEW070 SCT200
     FM200400 VRB05KT P6SM FEW080
     FM200700 12005KT P6SM BKN100
     FM201800 VRB05KT P6SM SCT080 BKN250
      AMD LTD TO CLD VIS AND WIND 2003/2013=



000
FTUS45 KPSR 192300
TAFIPL
TAF
KIPL 192321Z 2000/2024 VRB05KT P6SM SKC
     FM200400 28005KT P6SM SKC=



000
FTUS45 KPSR 192300
TAFPHX
TAF
KPHX 192321Z 2000/2024 29008KT P6SM FEW070 SCT200
     FM200500 VRB05KT P6SM FEW080
     FM200800 10005KT P6SM BKN100
     FM201800 VRB05KT P6SM SCT080 BKN250=



000
FTUS45 KPSR 192300
TAFBLH
TAF
KBLH 192321Z 2000/2024 VRB05KT P6SM SKC
     FM201500 17006KT P6SM BKN100=



000
FTUS45 KPSR 192300
TAFIWA
TAF
KIWA 192321Z 2000/2024 29006KT P6SM FEW070 SCT200
     FM200400 VRB05KT P6SM FEW080
     FM200700 12005KT P6SM BKN100
     FM201800 VRB05KT P6SM SCT080 BKN250
      AMD LTD TO CLD VIS AND WIND 2003/2013=



000
FTUS45 KPSR 192100 AAA
TAFPHX
TAF AMD
KPHX 192101Z 1921/2018 26008KT P6SM FEW070 SCT100
     FM200500 11005KT P6SM BKN100=



000
FTUS45 KPSR 191700
TAFPHX
TAF
KPHX 191739Z 1918/2018 VRB04KT P6SM FEW070 SCT110
     FM191900 26008KT P6SM FEW070 SCT100
     FM200500 11005KT P6SM BKN100=



000
FTUS45 KPSR 191700
TAFIWA
TAF
KIWA 191739Z 1918/2018 18005KT P6SM FEW070 SCT110
     FM192000 28008KT P6SM FEW070 SCT110
     FM200500 11005KT P6SM BKN100=



000
FTUS45 KPSR 191700
TAFIWA
TAF
KIWA 191739Z 1918/2018 18005KT P6SM FEW070 SCT110
     FM192000 28008KT P6SM FEW070 SCT110
     FM200500 11005KT P6SM BKN100=



000
FTUS45 KPSR 191700
TAFBLH
TAF
KBLH 191739Z 1918/2018 VRB05KT P6SM FEW200
     FM191900 20009KT P6SM SKC
     FM200700 VRB04KT P6SM SCT100=



000
FTUS45 KPSR 191700
TAFIPL
TAF
KIPL 191739Z 1918/2018 27009KT P6SM SKC
     FM200500 28005KT P6SM SKC=



000
FTUS45 KPSR 191500 AAA
TAFPHX
TAF AMD
KPHX 191508Z 1915/2012 10006KT P6SM SCT070 BKN100
     FM192100 26008KT P6SM FEW070 SCT100
     FM200500 12005KT P6SM BKN100=



000
FTUS45 KPSR 191100
TAFBLH
TAF
KBLH 191125Z 1912/2012 19008KT P6SM SKC
     FM191700 18005KT P6SM SKC
     FM200200 21005KT P6SM SKC=



000
FTUS45 KPSR 191100
TAFPHX
TAF
KPHX 191125Z 1912/2012 10005KT P6SM BKN090
     FM191600 10006KT P6SM SCT100
     FM192100 26008KT P6SM FEW100
     FM200500 12005KT P6SM BKN100=



000
FTUS45 KPSR 191100
TAFIWA
TAF
KIWA 191125Z 1912/2012 12006KT P6SM BKN090
     FM191600 12006KT P6SM FEW100
     FM192000 28008KT P6SM FEW100
     FM200500 12005KT P6SM BKN100
      AMD LTD TO CLD VIS AND WIND TIL 191300=



000
FTUS45 KPSR 191100
TAFIPL
TAF
KIPL 191125Z 1912/2012 27012KT P6SM SKC
     FM191600 27007KT P6SM SKC
     FM192100 27004KT P6SM SKC=



000
FTUS45 KPSR 191100
TAFIWA
TAF
KIWA 191125Z 1912/2012 12006KT P6SM BKN090
     FM191600 12006KT P6SM FEW100
     FM192000 28008KT P6SM FEW100
     FM200500 12005KT P6SM BKN100
      AMD LTD TO CLD VIS AND WIND TIL 191300=



000
FTUS45 KPSR 190800 AAA
TAFPHX
TAF AMD
KPHX 190839Z 1909/2006 15005KT P6SM BKN090
     FM191600 10006KT P6SM FEW100
     FM192100 26008KT P6SM FEW100=



000
FTUS45 KPSR 190500
TAFIPL
TAF
KIPL 190520Z 1906/2006 27015KT P6SM SKC
     FM190900 27007KT P6SM SKC=



000
FTUS45 KPSR 190500
TAFIWA
TAF
KIWA 190520Z 1906/2006 12006KT P6SM BKN090
     FM191600 12006KT P6SM FEW100
     FM192000 28008KT P6SM FEW100
     FM200500 12005KT P6SM SCT100
      AMD LTD TO CLD VIS AND WIND TIL 191300=



000
FTUS45 KPSR 190500
TAFPHX
TAF
KPHX 190520Z 1906/2006 12006KT P6SM BKN090
     FM191600 10006KT P6SM FEW100
     FM192100 26008KT P6SM FEW100=



000
FTUS45 KPSR 190500
TAFIWA
TAF
KIWA 190520Z 1906/2006 12006KT P6SM BKN090
     FM191600 12006KT P6SM FEW100
     FM192000 28008KT P6SM FEW100
     FM200500 12005KT P6SM SCT100
      AMD LTD TO CLD VIS AND WIND TIL 191300=



000
FTUS45 KPSR 190500
TAFBLH
TAF
KBLH 190520Z 1906/2006 21009KT P6SM SKC
     FM190800 19005KT P6SM SKC
     FM191900 18008KT P6SM SKC
     FM200200 21008KT P6SM SKC=



000
FTUS45 KPSR 190200 AAB
TAFPHX
TAF AMD
KPHX 190259Z 1903/1924 15005KT P6SM FEW070
     FM190600 12006KT P6SM SCT070
     FM192100 26008KT P6SM FEW070=



000
FTUS45 KPSR 190100 AAA
TAFBLH
TAF AMD
KBLH 190152Z 1902/1924 18008KT P6SM SKC
     FM190700 VRB05KT P6SM SKC
     FM191900 18008KT P6SM SKC=



000
FTUS45 KPSR 190100 AAA
TAFIWA
TAF AMD
KIWA 190152Z 1902/1924 VRB04KT P6SM SCT070
     FM190500 12006KT P6SM SCT070
     FM192000 28008KT P6SM FEW070
      AMD LTD TO CLD VIS AND WIND 1903/1913=



000
FTUS45 KPSR 190100 AAA
TAFIWA
TAF AMD
KIWA 190152Z 1902/1924 VRB04KT P6SM SCT070
     FM190500 12006KT P6SM SCT070
     FM192000 28008KT P6SM FEW070
      AMD LTD TO CLD VIS AND WIND 1903/1913=



000
FTUS45 KPSR 190100 AAA
TAFPHX
TAF AMD
KPHX 190151Z 1902/1924 18005KT P6SM FEW070
     FM190600 12006KT P6SM SCT070
     FM192100 26008KT P6SM FEW070=



000
FTUS45 KPSR 182300
TAFIWA
TAF
KIWA 182329Z 1900/1924 24006KT P6SM SCT070
     FM190500 12006KT P6SM SCT070
     FM192000 28008KT P6SM FEW070
      AMD LTD TO CLD VIS AND WIND 1903/1913=



000
FTUS45 KPSR 182300
TAFBLH
TAF
KBLH 182329Z 1900/1924 21012KT P6SM SKC
     FM190700 VRB05KT P6SM SKC
     FM191900 18008KT P6SM SKC=



000
FTUS45 KPSR 182300
TAFPHX
TAF
KPHX 182329Z 1900/1924 25006KT P6SM FEW070
     FM190600 12006KT P6SM SCT070
     FM192100 26008KT P6SM FEW070=



000
FTUS45 KPSR 182300
TAFIWA
TAF
KIWA 182329Z 1900/1924 24006KT P6SM SCT070
     FM190500 12006KT P6SM SCT070
     FM192000 28008KT P6SM FEW070
      AMD LTD TO CLD VIS AND WIND 1903/1913=



000
FTUS45 KPSR 182300
TAFIPL
TAF
KIPL 182329Z 1900/1924 27015G25KT P6SM SKC
     FM190600 27007KT P6SM SKC=



000
FTUS45 KPSR 182100 AAB
TAFPHX
TAF AMD
KPHX 182117Z 1821/1918 25005KT P6SM SCT060
      TEMPO 1823/1901 BKN060
     FM190300 21005KT P6SM BKN060
     FM190600 VRB05KT P6SM FEW070=



000
FTUS45 KPSR 182000 AAB
TAFIWA
TAF AMD
KIWA 182025Z 1820/1918 VRB05KT P6SM BKN060
     FM182100 24005KT P6SM SCT060
      TEMPO 1822/1902 BKN060
     FM190300 21009KT P6SM BKN060
     FM190600 VRB05KT P6SM FEW070=



000
FTUS45 KPSR 182000 AAB
TAFIWA
TAF AMD
KIWA 182025Z 1820/1918 VRB05KT P6SM BKN060
     FM182100 24005KT P6SM SCT060
      TEMPO 1822/1902 BKN060
     FM190300 21009KT P6SM BKN060
     FM190600 VRB05KT P6SM FEW070=



000
FTUS45 KPSR 182000 AAA
TAFPHX
TAF AMD
KPHX 182023Z 1820/1918 VRB05KT P6SM SCT060
     FM182200 25005KT P6SM SCT060
      TEMPO 1823/1901 BKN060
     FM190300 21005KT P6SM BKN060
     FM190600 VRB05KT P6SM FEW070=



000
FTUS45 KPSR 181900 AAA
TAFIWA
TAF AMD
KIWA 181907Z 1819/1918 VRB05KT P6SM BKN060
     FM182100 24005KT P6SM VCTS SCT060CB
      TEMPO 1822/1902 VRB15G25KT TSRA FEW040 BKN060CB
     FM190300 21009KT P6SM VCSH BKN060
     FM190600 VRB05KT P6SM FEW070=



000
FTUS45 KPSR 181900 AAA
TAFIWA
TAF AMD
KIWA 181907Z 1819/1918 VRB05KT P6SM BKN060
     FM182100 24005KT P6SM VCTS SCT060CB
      TEMPO 1822/1902 VRB15G25KT TSRA FEW040 BKN060CB
     FM190300 21009KT P6SM VCSH BKN060
     FM190600 VRB05KT P6SM FEW070=



000
FTUS45 KPSR 181700
TAFIWA
TAF
KIWA 181723Z 1818/1918 12005KT P6SM SCT060
     FM182100 24005KT P6SM VCTS SCT060CB
      TEMPO 1822/1902 VRB15G25KT TSRA FEW040 BKN060CB
     FM190300 21009KT P6SM VCSH BKN060
     FM190600 VRB05KT P6SM FEW070=



000
FTUS45 KPSR 181700
TAFPHX
TAF
KPHX 181723Z 1818/1918 VRB05KT P6SM SCT060
     FM182100 25005KT P6SM VCSH SCT060
      TEMPO 1822/1901 VRB15G25KT BKN060
     FM190300 21005KT P6SM VCSH BKN060
     FM190600 VRB05KT P6SM FEW070=



000
FTUS45 KPSR 181700
TAFBLH
TAF
KBLH 181723Z 1818/1918 20006KT P6SM SKC
     FM182100 23010G18KT P6SM SKC
     FM190200 21010KT P6SM SKC
     FM190700 VRB05KT P6SM SKC=



000
FTUS45 KPSR 181700
TAFIPL
TAF
KIPL 181723Z 1818/1918 32007KT P6SM FEW080
     FM181900 27015G25KT P6SM SKC
     FM190300 27010KT P6SM SKC=



000
FTUS45 KPSR 181500 AAA
TAFIWA
TAF AMD
KIWA 181504Z 1815/1912 12005KT P6SM BKN060
     FM181900 24005KT P6SM VCSH SCT060
      TEMPO 1821/1901 BKN060
     FM190100 21005KT P6SM BKN060
     FM190600 VRB05KT P6SM FEW070=



000
FTUS45 KPSR 181500 AAA
TAFIWA
TAF AMD
KIWA 181504Z 1815/1912 12005KT P6SM BKN060
     FM181900 24005KT P6SM VCSH SCT060
      TEMPO 1821/1901 BKN060
     FM190100 21005KT P6SM BKN060
     FM190600 VRB05KT P6SM FEW070=



000
FTUS45 KPSR 181500 AAA
TAFPHX
TAF AMD
KPHX 181503Z 1815/1912 09005KT P6SM SCT060
     FM182100 25005KT P6SM VCSH SCT060
      TEMPO 1821/1901 BKN060
     FM190100 21005KT P6SM BKN060
     FM190600 VRB05KT P6SM FEW070=



000
FTUS45 KPSR 181100
TAFBLH
TAF
KBLH 181123Z 1812/1912 20006KT P6SM SKC
     FM182100 23010G18KT P6SM SKC
     FM190200 21009KT P6SM SKC=



000
FTUS45 KPSR 181100
TAFIPL
TAF
KIPL 181123Z 1812/1912 VRB05KT P6SM FEW080
     FM181900 27015G25KT P6SM SKC
     FM190300 27010KT P6SM SKC=



000
FTUS45 KPSR 181100
TAFIWA
TAF
KIWA 181123Z 1812/1912 VRB04KT P6SM BKN060
     FM181900 26006KT P6SM VCSH SCT060 SCT120
     FM190200 32006KT P6SM SCT120
      AMD LTD TO CLD VIS AND WIND TIL 181300=



000
FTUS45 KPSR 181100
TAFPHX
TAF
KPHX 181123Z 1812/1912 03004KT P6SM SCT060
     FM182000 25005KT P6SM VCSH FEW070 SCT120
     FM190200 15008KT P6SM FEW120=



000
FTUS45 KPSR 181100
TAFIWA
TAF
KIWA 181123Z 1812/1912 VRB04KT P6SM BKN060
     FM181900 26006KT P6SM VCSH SCT060 SCT120
     FM190200 32006KT P6SM SCT120
      AMD LTD TO CLD VIS AND WIND TIL 181300=



000
FTUS45 KPSR 180800 AAA
TAFPHX
TAF AMD
KPHX 180834Z 1809/1906 10007KT P6SM FEW200
     FM182000 25005KT P6SM VCSH FEW070 SCT120
     FM190200 15008KT P6SM FEW120=



000
FTUS45 KPSR 180500
TAFIPL
TAF
KIPL 180522Z 1806/1906 VRB05KT P6SM FEW080
     FM181900 27012G20KT P6SM SKC=



000
FTUS45 KPSR 180500
TAFBLH
TAF
KBLH 180522Z 1806/1906 VRB05KT P6SM FEW080
     FM181000 20006KT P6SM SKC
     FM182100 23010G18KT P6SM SKC=



000
FTUS45 KPSR 180500
TAFIWA
TAF
KIWA 180522Z 1806/1906 02005KT P6SM BKN120
     FM180800 08004KT P6SM SCT120
     FM181900 26006KT P6SM VCSH SCT060 SCT120
     FM190200 32006KT P6SM SCT120
      AMD LTD TO CLD VIS AND WIND TIL 181300=



000
FTUS45 KPSR 180500
TAFIWA
TAF
KIWA 180522Z 1806/1906 02005KT P6SM BKN120
     FM180800 08004KT P6SM SCT120
     FM181900 26006KT P6SM VCSH SCT060 SCT120
     FM190200 32006KT P6SM SCT120
      AMD LTD TO CLD VIS AND WIND TIL 181300=



000
FTUS45 KPSR 180500
TAFPHX
TAF
KPHX 180522Z 1806/1906 10007KT P6SM FEW120 FEW200
     FM182000 25005KT P6SM VCSH FEW070 SCT120
     FM190200 15008KT P6SM FEW120=



000
FTUS45 KPSR 180300 AAA
TAFPHX
TAF AMD
KPHX 180308Z 1803/1824 08005KT P6SM FEW080 SCT120 SCT200
     FM180600 09005KT P6SM SCT120
     FM181900 25005KT P6SM FEW060 SCT120=



000
FTUS45 KPSR 172300
TAFPHX
TAF
KPHX 172321Z 1800/1824 06007KT P6SM VCSH FEW060 BKN120 OVC200
      TEMPO 1800/1801 -SHRA SCT060 BKN080
     FM180300 04005KT P6SM SCT060 BKN120 BKN200
     FM180600 04005KT P6SM SCT120
     FM181900 25005KT P6SM FEW060 SCT120=



000
FTUS45 KPSR 172300
TAFIPL
TAF
KIPL 172321Z 1800/1824 08005KT P6SM FEW080
     FM180600 27007KT P6SM FEW080=



000
FTUS45 KPSR 172300
TAFIWA
TAF
KIWA 172321Z 1800/1824 02007KT P6SM VCSH FEW060 BKN100 OVC200
      TEMPO 1800/1801 -SHRA SCT060 BKN080
     FM180300 02005KT P6SM SCT060 BKN120 BKN200
     FM180600 02005KT P6SM SCT120
     FM181900 22005KT P6SM FEW060 SCT120
      AMD LTD TO CLD VIS AND WIND 1803/1813=



000
FTUS45 KPSR 172300
TAFBLH
TAF
KBLH 172321Z 1800/1824 VRB05KT P6SM FEW090
     FM180300 21006KT P6SM FEW080=



000
FTUS45 KPSR 172300
TAFIWA
TAF
KIWA 172321Z 1800/1824 02007KT P6SM VCSH FEW060 BKN100 OVC200
      TEMPO 1800/1801 -SHRA SCT060 BKN080
     FM180300 02005KT P6SM SCT060 BKN120 BKN200
     FM180600 02005KT P6SM SCT120
     FM181900 22005KT P6SM FEW060 SCT120
      AMD LTD TO CLD VIS AND WIND 1803/1813=



000
FTUS45 KPSR 172200 AAB
TAFIWA
TAF AMD
KIWA 172246Z 1723/1818 04007KT P6SM VCSH SCT050 BKN080 OVC120
     FM180000 12007KT P6SM VCSH SCT060 BKN080
     FM180600 12007KT P6SM BKN100=



000
FTUS45 KPSR 172200 AAB
TAFIWA
TAF AMD
KIWA 172246Z 1723/1818 04007KT P6SM VCSH SCT050 BKN080 OVC120
     FM180000 12007KT P6SM VCSH SCT060 BKN080
     FM180600 12007KT P6SM BKN100=



000
FTUS45 KPSR 172200 AAC
TAFPHX
TAF AMD
KPHX 172245Z 1723/1818 06007KT P6SM VCSH FEW050 BKN100 OVC180
      TEMPO 1723/1801 5SM RA FEW030 SCT050 BKN080
     FM180200 12007KT P6SM VCSH SCT060 BKN120
     FM180600 12007KT P6SM BKN100=



000
FTUS45 KPSR 172000 AAB
TAFPHX
TAF AMD
KPHX 172051Z 1721/1818 09008KT P6SM VCSH SCT050 BKN080 OVC120
      TEMPO 1721/1723 5SM RA FEW030 SCT040 BKN060
     FM180000 12007KT P6SM VCSH SCT060 BKN080
     FM180600 12007KT P6SM BKN100=



000
FTUS45 KPSR 171900 AAA
TAFIWA
TAF AMD
KIWA 171926Z 1719/1818 12008KT P6SM VCSH SCT050 BKN080 OVC120
      TEMPO 1719/1723 17008KT 5SM RA FEW030 SCT040 BKN060
     FM180000 12007KT P6SM VCSH SCT060 BKN080
     FM180600 12007KT P6SM BKN100=



000
FTUS45 KPSR 171900 AAA
TAFIWA
TAF AMD
KIWA 171926Z 1719/1818 12008KT P6SM VCSH SCT050 BKN080 OVC120
      TEMPO 1719/1723 17008KT 5SM RA FEW030 SCT040 BKN060
     FM180000 12007KT P6SM VCSH SCT060 BKN080
     FM180600 12007KT P6SM BKN100=



000
FTUS45 KPSR 171900 AAA
TAFPHX
TAF AMD
KPHX 171914Z 1719/1818 09008KT P6SM VCSH SCT050 BKN080 OVC120
      TEMPO 1719/1723 5SM RA FEW030 SCT040 BKN060
     FM180000 12007KT P6SM VCSH SCT060 BKN080
     FM180600 12007KT P6SM BKN100=



000
FTUS45 KPSR 171700
TAFIPL
TAF
KIPL 171721Z 1718/1818 06005KT P6SM SCT080
     FM180600 27007KT P6SM FEW080=



000
FTUS45 KPSR 171700
TAFBLH
TAF
KBLH 171721Z 1718/1818 VRB05KT P6SM BKN090
     FM180300 21006KT P6SM FEW080=



000
FTUS45 KPSR 171700
TAFIWA
TAF
KIWA 171721Z 1718/1818 09007KT P6SM VCSH FEW060 BKN100 OVC180
      TEMPO 1720/1724 -SHRA SCT060 BKN100
     FM180000 12007KT P6SM VCSH OVC100
     FM180600 12007KT P6SM BKN100=



000
FTUS45 KPSR 171700
TAFPHX
TAF
KPHX 171721Z 1718/1818 09008KT P6SM VCSH SCT100 BKN140 OVC180
      TEMPO 1720/1724 -SHRA SCT080 BKN120
     FM180000 12007KT P6SM VCSH OVC100
     FM180600 12007KT P6SM BKN100=



000
FTUS45 KPSR 171700
TAFIWA
TAF
KIWA 171721Z 1718/1818 09007KT P6SM VCSH FEW060 BKN100 OVC180
      TEMPO 1720/1724 -SHRA SCT060 BKN100
     FM180000 12007KT P6SM VCSH OVC100
     FM180600 12007KT P6SM BKN100=



000
FTUS45 KPSR 171500 AAB
TAFPHX
TAF AMD
KPHX 171505Z 1715/1812 09008KT P6SM VCSH BKN120 OVC150
     FM171900 12010KT P6SM -SHRA BKN080 BKN120
     FM180300 12007KT P6SM VCSH OVC100=



000
FTUS45 KPSR 171300 AAA
TAFBLH
TAF AMD
KBLH 171339Z 1714/1812 31007KT P6SM BKN100
     FM171800 16005KT P6SM SCT100
     FM180600 21007KT P6SM FEW080=



000
FTUS45 KPSR 171300 AAA
TAFPHX
TAF AMD
KPHX 171328Z 1713/1812 09008KT P6SM VCSH BKN120 OVC150
     FM171800 12015KT P6SM -SHRA BKN080 BKN120
     FM180300 12007KT P6SM VCSH OVC100=



000
FTUS45 KPSR 171300 AAA
TAFIWA
TAF AMD
KIWA 171321Z 1713/1812 11010KT P6SM VCSH BKN090 OVC120
     FM171900 11015KT P6SM -SHRA BKN070 OVC120
     FM180300 14008KT P6SM VCSH OVC100
      AMD LTD TO CLD VIS AND WIND TIL 171300=



000
FTUS45 KPSR 171300 AAA
TAFIWA
TAF AMD
KIWA 171321Z 1713/1812 11010KT P6SM VCSH BKN090 OVC120
     FM171900 11015KT P6SM -SHRA BKN070 OVC120
     FM180300 14008KT P6SM VCSH OVC100
      AMD LTD TO CLD VIS AND WIND TIL 171300=



000
FTUS45 KPSR 171100
TAFBLH
TAF
KBLH 171120Z 1712/1812 31007KT P6SM SCT080
     FM171800 16005KT P6SM SCT080
     FM180600 21007KT P6SM FEW080=



000
FTUS45 KPSR 171100
TAFPHX
TAF
KPHX 171120Z 1712/1812 09008KT P6SM -SHRA BKN100 OVC150
     FM171500 12012KT P6SM VCSH BKN100 OVC150
     FM171800 12015KT P6SM -SHRA BKN080 BKN120
     FM180300 12007KT P6SM VCSH OVC100=



000
FTUS45 KPSR 171100
TAFIWA
TAF
KIWA 171120Z 1712/1812 10006KT P6SM -SHRA BKN090 OVC120
     FM171500 11010KT P6SM VCSH BKN090 OVC120
     FM171900 11015KT P6SM -SHRA BKN070 OVC120
     FM180300 14008KT P6SM VCSH OVC100
      AMD LTD TO CLD VIS AND WIND TIL 171300=



000
FTUS45 KPSR 171100
TAFIPL
TAF
KIPL 171120Z 1712/1812 VRB04KT P6SM SCT080
     FM171800 29010KT P6SM SCT080
     FM180600 27008KT P6SM FEW080=



000
FTUS45 KPSR 171100
TAFIWA
TAF
KIWA 171120Z 1712/1812 10006KT P6SM -SHRA BKN090 OVC120
     FM171500 11010KT P6SM VCSH BKN090 OVC120
     FM171900 11015KT P6SM -SHRA BKN070 OVC120
     FM180300 14008KT P6SM VCSH OVC100
      AMD LTD TO CLD VIS AND WIND TIL 171300=



    US Dept of Commerce
    National Oceanic and Atmospheric Administration
    National Weather Service
    1325 East West Highway
    Silver Spring, MD 20910
    Page Author: NWS Internet Services Team
Disclaimer
Information Quality
Credits
Glossary
Privacy Policy
Freedom of Information Act (FOIA)
About Us
Career Opportunities